sensor_id;sensor_type;location;lat;lon;timestamp;P1;durP1;ratioP1;P2;durP2;ratioP2
15130;SDS011;7666;50.920;4.628;2022-08-02T00:01:50;5.00;;;2.03;;
15130;SDS011;7666;50.920;4.628;2022-08-02T00:04:36;3.73;;;2.10;;
15130;SDS011;7666;50.920;4.628;2022-08-02T00:07:22;7.40;;;2.30;;
15130;SDS011;7666;50.920;4.628;2022-08-02T00:10:09;5.40;;;2.37;;
15130;SDS011;7666;50.920;4.628;2022-08-02T00:12:56;2.57;;;2.00;;
15130;SDS011;7666;50.920;4.628;2022-08-02T00:15:42;3.53;;;1.80;;
15130;SDS011;7666;50.920;4.628;2022-08-02T00:18:28;4.13;;;2.00;;
15130;SDS011;7666;50.920;4.628;2022-08-02T00:21:14;5.23;;;1.87;;
15130;SDS011;7666;50.920;4.628;2022-08-02T00:24:00;3.40;;;1.93;;
15130;SDS011;7666;50.920;4.628;2022-08-02T00:26:46;2.73;;;1.80;;
15130;SDS011;7666;50.920;4.628;2022-08-02T00:29:32;4.77;;;1.73;;
15130;SDS011;7666;50.920;4.628;2022-08-02T00:32:20;4.87;;;2.00;;
15130;SDS011;7666;50.920;4.628;2022-08-02T00:35:06;4.93;;;2.13;;
15130;SDS011;7666;50.920;4.628;2022-08-02T00:37:53;6.57;;;2.33;;
15130;SDS011;7666;50.920;4.628;2022-08-02T00:40:39;5.03;;;2.23;;
15130;SDS011;7666;50.920;4.628;2022-08-02T00:43:30;7.63;;;2.40;;
15130;SDS011;7666;50.920;4.628;2022-08-02T00:46:17;4.83;;;2.57;;
15130;SDS011;7666;50.920;4.628;2022-08-02T00:49:04;4.73;;;2.40;;
15130;SDS011;7666;50.920;4.628;2022-08-02T00:51:50;4.13;;;2.13;;
15130;SDS011;7666;50.920;4.628;2022-08-02T00:54:36;3.37;;;2.00;;
15130;SDS011;7666;50.920;4.628;2022-08-02T00:57:22;4.67;;;2.50;;
15130;SDS011;7666;50.920;4.628;2022-08-02T01:00:08;4.33;;;2.63;;
15130;SDS011;7666;50.920;4.628;2022-08-02T01:02:55;6.27;;;2.50;;
15130;SDS011;7666;50.920;4.628;2022-08-02T01:05:41;6.37;;;2.90;;
15130;SDS011;7666;50.920;4.628;2022-08-02T01:08:28;4.57;;;2.47;;
15130;SDS011;7666;50.920;4.628;2022-08-02T01:11:14;6.07;;;2.77;;
15130;SDS011;7666;50.920;4.628;2022-08-02T01:14:01;6.63;;;2.90;;
15130;SDS011;7666;50.920;4.628;2022-08-02T01:16:59;5.70;;;2.60;;
15130;SDS011;7666;50.920;4.628;2022-08-02T01:22:45;4.80;;;2.83;;
15130;SDS011;7666;50.920;4.628;2022-08-02T01:28:41;8.30;;;3.30;;
15130;SDS011;7666;50.920;4.628;2022-08-02T01:34:36;4.87;;;2.90;;
15130;SDS011;7666;50.920;4.628;2022-08-02T01:40:30;4.10;;;3.10;;
15130;SDS011;7666;50.920;4.628;2022-08-02T01:43:20;6.60;;;3.50;;
15130;SDS011;7666;50.920;4.628;2022-08-02T01:46:09;5.87;;;3.30;;
15130;SDS011;7666;50.920;4.628;2022-08-02T01:48:59;7.07;;;3.20;;
15130;SDS011;7666;50.920;4.628;2022-08-02T01:51:49;7.30;;;3.40;;
15130;SDS011;7666;50.920;4.628;2022-08-02T01:57:59;4.17;;;2.33;;
15130;SDS011;7666;50.920;4.628;2022-08-02T02:00:48;5.33;;;2.80;;
15130;SDS011;7666;50.920;4.628;2022-08-02T02:03:34;4.93;;;2.87;;
15130;SDS011;7666;50.920;4.628;2022-08-02T02:06:23;6.87;;;3.10;;
15130;SDS011;7666;50.920;4.628;2022-08-02T02:09:10;6.87;;;3.57;;
15130;SDS011;7666;50.920;4.628;2022-08-02T02:11:58;5.40;;;3.00;;
15130;SDS011;7666;50.920;4.628;2022-08-02T02:14:45;3.67;;;3.07;;
15130;SDS011;7666;50.920;4.628;2022-08-02T02:17:33;6.90;;;3.20;;
15130;SDS011;7666;50.920;4.628;2022-08-02T02:20:20;7.20;;;3.30;;
15130;SDS011;7666;50.920;4.628;2022-08-02T02:23:07;6.77;;;3.50;;
15130;SDS011;7666;50.920;4.628;2022-08-02T02:25:53;4.40;;;3.07;;
15130;SDS011;7666;50.920;4.628;2022-08-02T02:28:39;5.97;;;3.37;;
15130;SDS011;7666;50.920;4.628;2022-08-02T02:31:28;4.17;;;3.00;;
15130;SDS011;7666;50.920;4.628;2022-08-02T02:34:26;4.33;;;2.83;;
15130;SDS011;7666;50.920;4.628;2022-08-02T02:37:23;5.37;;;3.40;;
15130;SDS011;7666;50.920;4.628;2022-08-02T02:40:12;4.40;;;3.43;;
15130;SDS011;7666;50.920;4.628;2022-08-02T02:43:00;6.63;;;3.30;;
15130;SDS011;7666;50.920;4.628;2022-08-02T02:45:48;5.17;;;3.23;;
15130;SDS011;7666;50.920;4.628;2022-08-02T02:48:35;4.30;;;3.23;;
15130;SDS011;7666;50.920;4.628;2022-08-02T02:51:22;4.63;;;3.20;;
15130;SDS011;7666;50.920;4.628;2022-08-02T02:54:09;3.70;;;3.23;;
15130;SDS011;7666;50.920;4.628;2022-08-02T02:56:57;5.30;;;3.40;;
15130;SDS011;7666;50.920;4.628;2022-08-02T02:59:43;4.77;;;2.97;;
15130;SDS011;7666;50.920;4.628;2022-08-02T03:02:29;3.53;;;2.60;;
15130;SDS011;7666;50.920;4.628;2022-08-02T03:05:16;5.10;;;3.10;;
15130;SDS011;7666;50.920;4.628;2022-08-02T03:08:02;8.07;;;3.30;;
15130;SDS011;7666;50.920;4.628;2022-08-02T03:10:48;3.83;;;2.97;;
15130;SDS011;7666;50.920;4.628;2022-08-02T03:13:34;3.90;;;2.73;;
15130;SDS011;7666;50.920;4.628;2022-08-02T03:16:21;5.63;;;3.00;;
15130;SDS011;7666;50.920;4.628;2022-08-02T03:19:07;5.07;;;3.10;;
15130;SDS011;7666;50.920;4.628;2022-08-02T03:21:54;5.43;;;3.30;;
15130;SDS011;7666;50.920;4.628;2022-08-02T03:24:39;3.63;;;2.80;;
15130;SDS011;7666;50.920;4.628;2022-08-02T03:27:25;5.33;;;3.30;;
15130;SDS011;7666;50.920;4.628;2022-08-02T03:30:12;5.63;;;3.53;;
15130;SDS011;7666;50.920;4.628;2022-08-02T03:32:58;4.27;;;3.37;;
15130;SDS011;7666;50.920;4.628;2022-08-02T03:35:45;7.73;;;3.77;;
15130;SDS011;7666;50.920;4.628;2022-08-02T03:38:34;5.03;;;3.17;;
15130;SDS011;7666;50.920;4.628;2022-08-02T03:41:22;4.77;;;3.57;;
15130;SDS011;7666;50.920;4.628;2022-08-02T03:44:08;4.37;;;3.50;;
15130;SDS011;7666;50.920;4.628;2022-08-02T03:46:56;7.13;;;3.50;;
15130;SDS011;7666;50.920;4.628;2022-08-02T03:49:43;3.40;;;3.10;;
15130;SDS011;7666;50.920;4.628;2022-08-02T03:52:29;4.73;;;3.23;;
15130;SDS011;7666;50.920;4.628;2022-08-02T03:55:16;4.30;;;3.40;;
15130;SDS011;7666;50.920;4.628;2022-08-02T03:58:02;4.10;;;3.17;;
15130;SDS011;7666;50.920;4.628;2022-08-02T04:00:49;3.83;;;3.23;;
15130;SDS011;7666;50.920;4.628;2022-08-02T04:03:39;5.37;;;3.00;;
15130;SDS011;7666;50.920;4.628;2022-08-02T04:06:25;4.97;;;3.27;;
15130;SDS011;7666;50.920;4.628;2022-08-02T04:09:11;4.23;;;3.03;;
15130;SDS011;7666;50.920;4.628;2022-08-02T04:11:58;4.40;;;3.20;;
15130;SDS011;7666;50.920;4.628;2022-08-02T04:14:44;3.30;;;3.00;;
15130;SDS011;7666;50.920;4.628;2022-08-02T04:17:31;5.73;;;3.80;;
15130;SDS011;7666;50.920;4.628;2022-08-02T04:20:19;5.70;;;3.20;;
15130;SDS011;7666;50.920;4.628;2022-08-02T04:23:07;5.10;;;3.27;;
15130;SDS011;7666;50.920;4.628;2022-08-02T04:25:56;3.50;;;2.97;;
15130;SDS011;7666;50.920;4.628;2022-08-02T04:28:43;3.10;;;2.80;;
15130;SDS011;7666;50.920;4.628;2022-08-02T04:31:30;7.00;;;3.30;;
15130;SDS011;7666;50.920;4.628;2022-08-02T04:34:16;3.53;;;2.97;;
15130;SDS011;7666;50.920;4.628;2022-08-02T04:37:02;5.07;;;3.20;;
15130;SDS011;7666;50.920;4.628;2022-08-02T04:39:48;3.30;;;3.00;;
15130;SDS011;7666;50.920;4.628;2022-08-02T04:42:34;4.87;;;3.27;;
15130;SDS011;7666;50.920;4.628;2022-08-02T04:45:20;4.27;;;3.13;;
15130;SDS011;7666;50.920;4.628;2022-08-02T04:48:07;3.90;;;3.03;;
15130;SDS011;7666;50.920;4.628;2022-08-02T04:50:53;3.27;;;2.87;;
15130;SDS011;7666;50.920;4.628;2022-08-02T04:53:39;3.23;;;2.50;;
15130;SDS011;7666;50.920;4.628;2022-08-02T04:56:25;3.57;;;2.57;;
15130;SDS011;7666;50.920;4.628;2022-08-02T04:59:11;4.47;;;2.90;;
15130;SDS011;7666;50.920;4.628;2022-08-02T05:01:57;2.90;;;2.43;;
15130;SDS011;7666;50.920;4.628;2022-08-02T05:04:43;4.57;;;2.67;;
15130;SDS011;7666;50.920;4.628;2022-08-02T05:07:29;5.13;;;3.20;;
15130;SDS011;7666;50.920;4.628;2022-08-02T05:10:15;3.80;;;2.87;;
15130;SDS011;7666;50.920;4.628;2022-08-02T05:13:02;5.63;;;2.97;;
15130;SDS011;7666;50.920;4.628;2022-08-02T05:15:49;4.60;;;3.30;;
15130;SDS011;7666;50.920;4.628;2022-08-02T05:18:35;4.20;;;3.07;;
15130;SDS011;7666;50.920;4.628;2022-08-02T05:21:21;3.70;;;2.83;;
15130;SDS011;7666;50.920;4.628;2022-08-02T05:24:08;3.77;;;2.60;;
15130;SDS011;7666;50.920;4.628;2022-08-02T05:26:54;3.63;;;2.77;;
15130;SDS011;7666;50.920;4.628;2022-08-02T05:29:40;3.37;;;2.60;;
15130;SDS011;7666;50.920;4.628;2022-08-02T05:32:26;4.50;;;3.20;;
15130;SDS011;7666;50.920;4.628;2022-08-02T05:35:12;4.80;;;3.03;;
15130;SDS011;7666;50.920;4.628;2022-08-02T05:37:58;4.77;;;2.80;;
15130;SDS011;7666;50.920;4.628;2022-08-02T05:40:44;5.13;;;3.10;;
15130;SDS011;7666;50.920;4.628;2022-08-02T05:43:30;5.20;;;3.13;;
15130;SDS011;7666;50.920;4.628;2022-08-02T05:46:16;3.87;;;3.13;;
15130;SDS011;7666;50.920;4.628;2022-08-02T05:49:02;4.97;;;2.93;;
15130;SDS011;7666;50.920;4.628;2022-08-02T05:51:55;4.17;;;2.97;;
15130;SDS011;7666;50.920;4.628;2022-08-02T05:54:47;4.50;;;3.13;;
15130;SDS011;7666;50.920;4.628;2022-08-02T05:57:41;5.50;;;3.43;;
15130;SDS011;7666;50.920;4.628;2022-08-02T06:00:32;3.67;;;2.87;;
15130;SDS011;7666;50.920;4.628;2022-08-02T06:03:21;4.67;;;2.87;;
15130;SDS011;7666;50.920;4.628;2022-08-02T06:06:10;4.20;;;2.90;;
15130;SDS011;7666;50.920;4.628;2022-08-02T06:09:02;4.10;;;2.60;;
15130;SDS011;7666;50.920;4.628;2022-08-02T06:11:53;3.72;;;2.58;;
15130;SDS011;7666;50.920;4.628;2022-08-02T06:14:43;3.90;;;2.95;;
15130;SDS011;7666;50.920;4.628;2022-08-02T06:17:31;4.32;;;2.75;;
15130;SDS011;7666;50.920;4.628;2022-08-02T06:20:17;4.38;;;2.53;;
15130;SDS011;7666;50.920;4.628;2022-08-02T06:23:06;4.30;;;2.90;;
15130;SDS011;7666;50.920;4.628;2022-08-02T06:25:53;4.15;;;2.42;;
15130;SDS011;7666;50.920;4.628;2022-08-02T06:28:40;3.28;;;2.47;;
15130;SDS011;7666;50.920;4.628;2022-08-02T06:31:29;5.22;;;2.50;;
15130;SDS011;7666;50.920;4.628;2022-08-02T06:34:15;5.93;;;3.20;;
15130;SDS011;7666;50.920;4.628;2022-08-02T06:37:12;3.95;;;3.17;;
15130;SDS011;7666;50.920;4.628;2022-08-02T06:40:45;3.72;;;3.40;;
15130;SDS011;7666;50.920;4.628;2022-08-02T06:43:26;4.63;;;3.80;;
15130;SDS011;7666;50.920;4.628;2022-08-02T06:46:43;8.25;;;4.07;;
15130;SDS011;7666;50.920;4.628;2022-08-02T06:49:29;5.88;;;3.13;;
15130;SDS011;7666;50.920;4.628;2022-08-02T06:52:15;6.22;;;3.33;;
15130;SDS011;7666;50.920;4.628;2022-08-02T06:55:02;4.80;;;2.95;;
15130;SDS011;7666;50.920;4.628;2022-08-02T06:57:49;4.00;;;3.00;;
15130;SDS011;7666;50.920;4.628;2022-08-02T07:00:35;4.05;;;2.67;;
15130;SDS011;7666;50.920;4.628;2022-08-02T07:03:21;3.40;;;2.85;;
15130;SDS011;7666;50.920;4.628;2022-08-02T07:06:09;5.25;;;2.70;;
15130;SDS011;7666;50.920;4.628;2022-08-02T07:08:55;4.85;;;2.45;;
15130;SDS011;7666;50.920;4.628;2022-08-02T07:11:41;3.92;;;2.33;;
15130;SDS011;7666;50.920;4.628;2022-08-02T07:14:27;4.18;;;2.33;;
15130;SDS011;7666;50.920;4.628;2022-08-02T07:17:13;4.32;;;2.05;;
15130;SDS011;7666;50.920;4.628;2022-08-02T07:19:59;4.05;;;2.28;;
15130;SDS011;7666;50.920;4.628;2022-08-02T07:22:45;5.00;;;2.47;;
15130;SDS011;7666;50.920;4.628;2022-08-02T07:25:31;2.55;;;1.77;;
15130;SDS011;7666;50.920;4.628;2022-08-02T07:28:17;3.00;;;1.83;;
15130;SDS011;7666;50.920;4.628;2022-08-02T07:31:03;1.70;;;1.48;;
15130;SDS011;7666;50.920;4.628;2022-08-02T07:33:49;3.75;;;1.85;;
15130;SDS011;7666;50.920;4.628;2022-08-02T07:36:35;1.70;;;1.60;;
15130;SDS011;7666;50.920;4.628;2022-08-02T07:39:21;3.95;;;1.80;;
15130;SDS011;7666;50.920;4.628;2022-08-02T07:42:07;5.22;;;1.60;;
15130;SDS011;7666;50.920;4.628;2022-08-02T07:44:53;2.70;;;1.42;;
15130;SDS011;7666;50.920;4.628;2022-08-02T07:47:40;1.23;;;1.13;;
15130;SDS011;7666;50.920;4.628;2022-08-02T07:50:26;2.07;;;1.57;;
15130;SDS011;7666;50.920;4.628;2022-08-02T07:53:12;2.20;;;1.33;;
15130;SDS011;7666;50.920;4.628;2022-08-02T07:55:58;5.60;;;1.70;;
15130;SDS011;7666;50.920;4.628;2022-08-02T07:58:44;2.40;;;1.30;;
15130;SDS011;7666;50.920;4.628;2022-08-02T08:01:30;2.55;;;1.30;;
15130;SDS011;7666;50.920;4.628;2022-08-02T08:04:16;1.77;;;1.20;;
15130;SDS011;7666;50.920;4.628;2022-08-02T08:07:03;2.40;;;1.07;;
15130;SDS011;7666;50.920;4.628;2022-08-02T08:09:50;2.57;;;1.07;;
15130;SDS011;7666;50.920;4.628;2022-08-02T08:12:36;1.67;;;1.20;;
15130;SDS011;7666;50.920;4.628;2022-08-02T08:15:22;2.37;;;1.23;;
15130;SDS011;7666;50.920;4.628;2022-08-02T08:18:08;3.47;;;1.27;;
15130;SDS011;7666;50.920;4.628;2022-08-02T08:20:54;2.50;;;1.13;;
15130;SDS011;7666;50.920;4.628;2022-08-02T08:23:40;2.97;;;1.17;;
15130;SDS011;7666;50.920;4.628;2022-08-02T08:26:26;3.92;;;1.17;;
15130;SDS011;7666;50.920;4.628;2022-08-02T08:29:12;1.85;;;1.20;;
15130;SDS011;7666;50.920;4.628;2022-08-02T08:31:58;3.70;;;1.27;;
15130;SDS011;7666;50.920;4.628;2022-08-02T08:34:44;1.73;;;1.17;;
15130;SDS011;7666;50.920;4.628;2022-08-02T08:37:37;2.67;;;1.08;;
15130;SDS011;7666;50.920;4.628;2022-08-02T08:40:24;1.25;;;1.15;;
15130;SDS011;7666;50.920;4.628;2022-08-02T08:43:12;1.73;;;1.17;;
15130;SDS011;7666;50.920;4.628;2022-08-02T08:45:58;2.80;;;1.30;;
15130;SDS011;7666;50.920;4.628;2022-08-02T08:48:45;2.08;;;1.17;;
15130;SDS011;7666;50.920;4.628;2022-08-02T08:51:36;3.50;;;1.50;;
15130;SDS011;7666;50.920;4.628;2022-08-02T08:54:25;2.35;;;1.30;;
15130;SDS011;7666;50.920;4.628;2022-08-02T08:57:14;3.63;;;1.45;;
15130;SDS011;7666;50.920;4.628;2022-08-02T09:00:02;2.58;;;1.27;;
15130;SDS011;7666;50.920;4.628;2022-08-02T09:02:49;3.45;;;1.80;;
15130;SDS011;7666;50.920;4.628;2022-08-02T09:05:38;3.40;;;1.40;;
15130;SDS011;7666;50.920;4.628;2022-08-02T09:08:26;2.33;;;1.40;;
15130;SDS011;7666;50.920;4.628;2022-08-02T09:11:13;2.25;;;1.52;;
15130;SDS011;7666;50.920;4.628;2022-08-02T09:14:01;2.95;;;1.55;;
15130;SDS011;7666;50.920;4.628;2022-08-02T09:16:48;2.35;;;1.40;;
15130;SDS011;7666;50.920;4.628;2022-08-02T09:19:35;4.88;;;1.40;;
15130;SDS011;7666;50.920;4.628;2022-08-02T09:22:21;5.28;;;1.70;;
15130;SDS011;7666;50.920;4.628;2022-08-02T09:25:07;2.78;;;1.73;;
15130;SDS011;7666;50.920;4.628;2022-08-02T09:28:01;2.83;;;1.60;;
15130;SDS011;7666;50.920;4.628;2022-08-02T09:30:50;4.00;;;1.60;;
15130;SDS011;7666;50.920;4.628;2022-08-02T09:33:37;2.60;;;1.30;;
15130;SDS011;7666;50.920;4.628;2022-08-02T09:36:24;3.58;;;1.50;;
15130;SDS011;7666;50.920;4.628;2022-08-02T09:39:13;10.35;;;1.52;;
15130;SDS011;7666;50.920;4.628;2022-08-02T09:42:06;2.47;;;1.40;;
15130;SDS011;7666;50.920;4.628;2022-08-02T09:44:55;3.22;;;1.27;;
15130;SDS011;7666;50.920;4.628;2022-08-02T09:47:42;3.95;;;1.40;;
15130;SDS011;7666;50.920;4.628;2022-08-02T09:50:36;3.00;;;1.70;;
15130;SDS011;7666;50.920;4.628;2022-08-02T09:53:24;5.57;;;1.50;;
15130;SDS011;7666;50.920;4.628;2022-08-02T09:56:10;2.55;;;1.58;;
15130;SDS011;7666;50.920;4.628;2022-08-02T09:58:56;2.53;;;1.20;;
15130;SDS011;7666;50.920;4.628;2022-08-02T10:01:44;2.30;;;1.42;;
15130;SDS011;7666;50.920;4.628;2022-08-02T10:04:31;4.10;;;1.40;;
15130;SDS011;7666;50.920;4.628;2022-08-02T10:07:17;3.58;;;1.20;;
15130;SDS011;7666;50.920;4.628;2022-08-02T10:10:04;1.30;;;1.20;;
15130;SDS011;7666;50.920;4.628;2022-08-02T10:12:50;3.10;;;1.20;;
15130;SDS011;7666;50.920;4.628;2022-08-02T10:15:37;1.60;;;1.20;;
15130;SDS011;7666;50.920;4.628;2022-08-02T10:18:23;1.85;;;1.17;;
15130;SDS011;7666;50.920;4.628;2022-08-02T10:21:13;1.73;;;1.10;;
15130;SDS011;7666;50.920;4.628;2022-08-02T10:24:11;1.73;;;1.20;;
15130;SDS011;7666;50.920;4.628;2022-08-02T10:27:12;5.35;;;1.10;;
15130;SDS011;7666;50.920;4.628;2022-08-02T10:30:00;1.45;;;1.00;;
15130;SDS011;7666;50.920;4.628;2022-08-02T10:32:47;3.50;;;1.00;;
15130;SDS011;7666;50.920;4.628;2022-08-02T10:35:35;2.60;;;1.20;;
15130;SDS011;7666;50.920;4.628;2022-08-02T10:38:23;2.72;;;1.00;;
15130;SDS011;7666;50.920;4.628;2022-08-02T10:41:10;1.27;;;0.90;;
15130;SDS011;7666;50.920;4.628;2022-08-02T10:43:56;2.63;;;1.00;;
15130;SDS011;7666;50.920;4.628;2022-08-02T10:46:45;4.68;;;1.20;;
15130;SDS011;7666;50.920;4.628;2022-08-02T10:49:31;3.47;;;1.10;;
15130;SDS011;7666;50.920;4.628;2022-08-02T10:52:31;3.60;;;1.17;;
15130;SDS011;7666;50.920;4.628;2022-08-02T10:55:18;1.90;;;1.00;;
15130;SDS011;7666;50.920;4.628;2022-08-02T10:58:20;3.20;;;1.23;;
15130;SDS011;7666;50.920;4.628;2022-08-02T11:01:27;4.07;;;1.10;;
15130;SDS011;7666;50.920;4.628;2022-08-02T11:04:14;2.05;;;1.25;;
15130;SDS011;7666;50.920;4.628;2022-08-02T11:16:02;3.58;;;0.98;;
15130;SDS011;7666;50.920;4.628;2022-08-02T11:21:35;3.60;;;1.10;;
15130;SDS011;7666;50.920;4.628;2022-08-02T11:24:25;3.28;;;1.20;;
15130;SDS011;7666;50.920;4.628;2022-08-02T11:27:17;2.00;;;1.10;;
15130;SDS011;7666;50.920;4.628;2022-08-02T11:30:11;3.38;;;1.02;;
15130;SDS011;7666;50.920;4.628;2022-08-02T11:32:57;3.83;;;1.15;;
15130;SDS011;7666;50.920;4.628;2022-08-02T11:35:44;5.10;;;1.23;;
15130;SDS011;7666;50.920;4.628;2022-08-02T11:38:30;2.85;;;1.60;;
15130;SDS011;7666;50.920;4.628;2022-08-02T11:41:20;9.45;;;1.30;;
15130;SDS011;7666;50.920;4.628;2022-08-02T11:44:07;3.58;;;1.17;;
15130;SDS011;7666;50.920;4.628;2022-08-02T11:46:58;1.95;;;1.13;;
15130;SDS011;7666;50.920;4.628;2022-08-02T11:49:47;2.58;;;1.00;;
15130;SDS011;7666;50.920;4.628;2022-08-02T11:52:33;3.10;;;0.70;;
15130;SDS011;7666;50.920;4.628;2022-08-02T11:55:29;2.88;;;1.33;;
15130;SDS011;7666;50.920;4.628;2022-08-02T11:58:16;3.35;;;1.10;;
15130;SDS011;7666;50.920;4.628;2022-08-02T12:01:02;3.85;;;1.17;;
15130;SDS011;7666;50.920;4.628;2022-08-02T12:03:51;3.25;;;1.20;;
15130;SDS011;7666;50.920;4.628;2022-08-02T12:06:37;1.83;;;1.25;;
15130;SDS011;7666;50.920;4.628;2022-08-02T12:09:24;1.33;;;1.00;;
15130;SDS011;7666;50.920;4.628;2022-08-02T12:12:15;3.53;;;0.90;;
15130;SDS011;7666;50.920;4.628;2022-08-02T12:15:00;2.35;;;1.00;;
15130;SDS011;7666;50.920;4.628;2022-08-02T12:17:46;3.75;;;1.08;;
15130;SDS011;7666;50.920;4.628;2022-08-02T12:20:51;3.83;;;1.00;;
15130;SDS011;7666;50.920;4.628;2022-08-02T12:23:42;4.93;;;1.00;;
15130;SDS011;7666;50.920;4.628;2022-08-02T12:26:28;3.13;;;1.00;;
15130;SDS011;7666;50.920;4.628;2022-08-02T12:29:14;7.22;;;1.30;;
15130;SDS011;7666;50.920;4.628;2022-08-02T12:32:01;2.30;;;0.95;;
15130;SDS011;7666;50.920;4.628;2022-08-02T12:34:49;4.68;;;1.00;;
15130;SDS011;7666;50.920;4.628;2022-08-02T12:37:55;4.80;;;1.00;;
15130;SDS011;7666;50.920;4.628;2022-08-02T12:40:41;1.60;;;0.90;;
15130;SDS011;7666;50.920;4.628;2022-08-02T12:43:27;3.65;;;0.80;;
15130;SDS011;7666;50.920;4.628;2022-08-02T12:46:14;2.00;;;0.90;;
15130;SDS011;7666;50.920;4.628;2022-08-02T12:49:14;3.33;;;1.10;;
15130;SDS011;7666;50.920;4.628;2022-08-02T12:52:16;2.17;;;1.10;;
15130;SDS011;7666;50.920;4.628;2022-08-02T12:55:13;1.60;;;0.73;;
15130;SDS011;7666;50.920;4.628;2022-08-02T12:58:12;3.00;;;0.80;;
15130;SDS011;7666;50.920;4.628;2022-08-02T13:00:59;1.80;;;0.88;;
15130;SDS011;7666;50.920;4.628;2022-08-02T13:03:45;6.07;;;0.88;;
15130;SDS011;7666;50.920;4.628;2022-08-02T13:06:32;1.88;;;0.88;;
15130;SDS011;7666;50.920;4.628;2022-08-02T13:09:18;4.97;;;1.15;;
15130;SDS011;7666;50.920;4.628;2022-08-02T13:12:04;3.90;;;1.23;;
15130;SDS011;7666;50.920;4.628;2022-08-02T13:14:51;2.35;;;0.98;;
15130;SDS011;7666;50.920;4.628;2022-08-02T13:17:37;2.30;;;0.70;;
15130;SDS011;7666;50.920;4.628;2022-08-02T13:20:24;1.75;;;0.82;;
15130;SDS011;7666;50.920;4.628;2022-08-02T13:23:11;2.28;;;0.85;;
15130;SDS011;7666;50.920;4.628;2022-08-02T13:25:57;3.03;;;1.00;;
15130;SDS011;7666;50.920;4.628;2022-08-02T13:28:43;4.80;;;1.00;;
15130;SDS011;7666;50.920;4.628;2022-08-02T13:31:30;2.63;;;0.80;;
15130;SDS011;7666;50.920;4.628;2022-08-02T13:34:23;3.80;;;1.00;;
15130;SDS011;7666;50.920;4.628;2022-08-02T13:37:09;3.35;;;1.17;;
15130;SDS011;7666;50.920;4.628;2022-08-02T13:39:55;4.22;;;1.00;;
15130;SDS011;7666;50.920;4.628;2022-08-02T13:42:41;2.35;;;1.05;;
15130;SDS011;7666;50.920;4.628;2022-08-02T13:45:27;1.13;;;0.82;;
15130;SDS011;7666;50.920;4.628;2022-08-02T13:48:13;2.90;;;1.10;;
15130;SDS011;7666;50.920;4.628;2022-08-02T13:50:59;2.58;;;0.88;;
15130;SDS011;7666;50.920;4.628;2022-08-02T13:53:45;3.15;;;1.00;;
15130;SDS011;7666;50.920;4.628;2022-08-02T13:56:31;2.95;;;0.90;;
15130;SDS011;7666;50.920;4.628;2022-08-02T13:59:17;1.98;;;0.80;;
15130;SDS011;7666;50.920;4.628;2022-08-02T14:02:03;3.80;;;0.65;;
15130;SDS011;7666;50.920;4.628;2022-08-02T14:04:49;6.43;;;0.88;;
15130;SDS011;7666;50.920;4.628;2022-08-02T14:07:35;3.50;;;0.90;;
15130;SDS011;7666;50.920;4.628;2022-08-02T14:10:21;3.58;;;0.88;;
15130;SDS011;7666;50.920;4.628;2022-08-02T14:13:10;2.47;;;1.00;;
15130;SDS011;7666;50.920;4.628;2022-08-02T14:15:56;1.40;;;1.10;;
15130;SDS011;7666;50.920;4.628;2022-08-02T14:18:43;4.32;;;1.10;;
15130;SDS011;7666;50.920;4.628;2022-08-02T14:21:30;2.05;;;0.90;;
15130;SDS011;7666;50.920;4.628;2022-08-02T14:24:17;3.03;;;0.80;;
15130;SDS011;7666;50.920;4.628;2022-08-02T14:27:04;4.88;;;1.10;;
15130;SDS011;7666;50.920;4.628;2022-08-02T14:29:50;5.03;;;1.10;;
15130;SDS011;7666;50.920;4.628;2022-08-02T14:32:36;2.53;;;1.00;;
15130;SDS011;7666;50.920;4.628;2022-08-02T14:35:22;2.85;;;0.90;;
15130;SDS011;7666;50.920;4.628;2022-08-02T14:38:08;2.90;;;1.10;;
15130;SDS011;7666;50.920;4.628;2022-08-02T14:40:54;3.95;;;1.13;;
15130;SDS011;7666;50.920;4.628;2022-08-02T14:43:41;3.53;;;1.10;;
15130;SDS011;7666;50.920;4.628;2022-08-02T14:46:45;2.85;;;1.23;;
15130;SDS011;7666;50.920;4.628;2022-08-02T14:49:31;4.78;;;1.02;;
15130;SDS011;7666;50.920;4.628;2022-08-02T14:52:17;1.63;;;1.08;;
15130;SDS011;7666;50.920;4.628;2022-08-02T14:55:04;3.55;;;0.90;;
15130;SDS011;7666;50.920;4.628;2022-08-02T14:57:50;3.47;;;0.80;;
15130;SDS011;7666;50.920;4.628;2022-08-02T15:00:36;5.65;;;1.42;;
15130;SDS011;7666;50.920;4.628;2022-08-02T15:03:22;1.65;;;1.15;;
15130;SDS011;7666;50.920;4.628;2022-08-02T15:06:08;3.33;;;0.88;;
15130;SDS011;7666;50.920;4.628;2022-08-02T15:08:54;4.82;;;1.40;;
15130;SDS011;7666;50.920;4.628;2022-08-02T15:11:40;4.07;;;1.10;;
15130;SDS011;7666;50.920;4.628;2022-08-02T15:14:26;3.90;;;1.00;;
15130;SDS011;7666;50.920;4.628;2022-08-02T15:17:12;6.95;;;1.27;;
15130;SDS011;7666;50.920;4.628;2022-08-02T15:19:58;3.25;;;1.00;;
15130;SDS011;7666;50.920;4.628;2022-08-02T15:22:47;2.40;;;1.05;;
15130;SDS011;7666;50.920;4.628;2022-08-02T15:25:34;2.75;;;1.02;;
15130;SDS011;7666;50.920;4.628;2022-08-02T15:28:20;2.03;;;1.00;;
15130;SDS011;7666;50.920;4.628;2022-08-02T15:31:06;3.10;;;1.10;;
15130;SDS011;7666;50.920;4.628;2022-08-02T15:33:52;4.00;;;1.15;;
15130;SDS011;7666;50.920;4.628;2022-08-02T15:36:38;2.53;;;0.80;;
15130;SDS011;7666;50.920;4.628;2022-08-02T15:39:24;0.95;;;0.75;;
15130;SDS011;7666;50.920;4.628;2022-08-02T15:42:10;3.95;;;1.23;;
15130;SDS011;7666;50.920;4.628;2022-08-02T15:44:56;3.13;;;1.00;;
15130;SDS011;7666;50.920;4.628;2022-08-02T15:47:43;2.22;;;0.90;;
15130;SDS011;7666;50.920;4.628;2022-08-02T15:50:29;5.03;;;1.05;;
15130;SDS011;7666;50.920;4.628;2022-08-02T15:53:15;2.33;;;0.90;;
15130;SDS011;7666;50.920;4.628;2022-08-02T15:56:01;4.07;;;0.93;;
15130;SDS011;7666;50.920;4.628;2022-08-02T15:58:47;3.15;;;1.05;;
15130;SDS011;7666;50.920;4.628;2022-08-02T16:01:33;2.60;;;0.93;;
15130;SDS011;7666;50.920;4.628;2022-08-02T16:04:19;4.55;;;0.80;;
15130;SDS011;7666;50.920;4.628;2022-08-02T16:07:05;4.70;;;0.90;;
15130;SDS011;7666;50.920;4.628;2022-08-02T16:09:51;4.15;;;0.95;;
15130;SDS011;7666;50.920;4.628;2022-08-02T16:12:37;2.88;;;1.02;;
15130;SDS011;7666;50.920;4.628;2022-08-02T16:15:23;6.57;;;1.05;;
15130;SDS011;7666;50.920;4.628;2022-08-02T16:18:09;1.27;;;0.70;;
15130;SDS011;7666;50.920;4.628;2022-08-02T16:20:55;5.72;;;0.80;;
15130;SDS011;7666;50.920;4.628;2022-08-02T16:23:41;5.15;;;0.95;;
15130;SDS011;7666;50.920;4.628;2022-08-02T16:26:27;4.32;;;0.90;;
15130;SDS011;7666;50.920;4.628;2022-08-02T16:29:15;4.30;;;1.10;;
15130;SDS011;7666;50.920;4.628;2022-08-02T16:32:02;4.55;;;1.13;;
15130;SDS011;7666;50.920;4.628;2022-08-02T16:34:49;4.90;;;1.70;;
15130;SDS011;7666;50.920;4.628;2022-08-02T16:37:35;5.43;;;1.10;;
15130;SDS011;7666;50.920;4.628;2022-08-02T16:40:21;4.20;;;1.00;;
15130;SDS011;7666;50.920;4.628;2022-08-02T16:43:07;3.83;;;1.00;;
15130;SDS011;7666;50.920;4.628;2022-08-02T16:45:53;3.53;;;0.80;;
15130;SDS011;7666;50.920;4.628;2022-08-02T16:48:39;2.85;;;1.05;;
15130;SDS011;7666;50.920;4.628;2022-08-02T16:51:25;5.50;;;1.30;;
15130;SDS011;7666;50.920;4.628;2022-08-02T16:54:14;2.60;;;0.98;;
15130;SDS011;7666;50.920;4.628;2022-08-02T16:57:00;3.17;;;0.98;;
15130;SDS011;7666;50.920;4.628;2022-08-02T16:59:47;2.55;;;1.05;;
15130;SDS011;7666;50.920;4.628;2022-08-02T17:02:33;2.38;;;0.90;;
15130;SDS011;7666;50.920;4.628;2022-08-02T17:05:20;5.50;;;0.90;;
15130;SDS011;7666;50.920;4.628;2022-08-02T17:08:06;5.70;;;0.88;;
15130;SDS011;7666;50.920;4.628;2022-08-02T17:10:52;2.80;;;0.90;;
15130;SDS011;7666;50.920;4.628;2022-08-02T17:13:38;2.83;;;0.93;;
15130;SDS011;7666;50.920;4.628;2022-08-02T17:16:24;6.00;;;1.10;;
15130;SDS011;7666;50.920;4.628;2022-08-02T17:19:10;3.78;;;1.30;;
15130;SDS011;7666;50.920;4.628;2022-08-02T17:21:56;3.33;;;0.85;;
15130;SDS011;7666;50.920;4.628;2022-08-02T17:24:42;4.15;;;1.38;;
15130;SDS011;7666;50.920;4.628;2022-08-02T17:27:28;3.63;;;1.00;;
15130;SDS011;7666;50.920;4.628;2022-08-02T17:30:14;5.57;;;1.80;;
15130;SDS011;7666;50.920;4.628;2022-08-02T17:33:00;5.38;;;2.45;;